sensor_id;sensor_type;location;lat;lon;timestamp;P1;durP1;ratioP1;P2;durP2;ratioP2
11877;SDS011;5998;42.676;23.268;2023-02-18T00:01:23;29.93;;;17.53;;
11877;SDS011;5998;42.676;23.268;2023-02-18T00:03:50;29.90;;;17.80;;
11877;SDS011;5998;42.676;23.268;2023-02-18T00:06:19;29.73;;;17.87;;
11877;SDS011;5998;42.676;23.268;2023-02-18T00:08:48;31.67;;;18.70;;
11877;SDS011;5998;42.676;23.268;2023-02-18T00:11:15;34.97;;;18.30;;
11877;SDS011;5998;42.676;23.268;2023-02-18T00:13:43;28.77;;;17.67;;
11877;SDS011;5998;42.676;23.268;2023-02-18T00:16:14;30.03;;;17.07;;
11877;SDS011;5998;42.676;23.268;2023-02-18T00:18:41;29.47;;;17.77;;
11877;SDS011;5998;42.676;23.268;2023-02-18T00:21:07;31.57;;;17.97;;
11877;SDS011;5998;42.676;23.268;2023-02-18T00:23:35;32.20;;;18.53;;
11877;SDS011;5998;42.676;23.268;2023-02-18T00:26:03;33.23;;;18.17;;
11877;SDS011;5998;42.676;23.268;2023-02-18T00:28:31;35.37;;;18.67;;
11877;SDS011;5998;42.676;23.268;2023-02-18T00:30:58;32.03;;;17.83;;
11877;SDS011;5998;42.676;23.268;2023-02-18T00:33:25;30.40;;;15.83;;
11877;SDS011;5998;42.676;23.268;2023-02-18T00:35:52;28.87;;;16.10;;
11877;SDS011;5998;42.676;23.268;2023-02-18T00:38:26;31.70;;;17.90;;
11877;SDS011;5998;42.676;23.268;2023-02-18T00:40:54;28.73;;;18.03;;
11877;SDS011;5998;42.676;23.268;2023-02-18T00:43:20;30.93;;;17.23;;
11877;SDS011;5998;42.676;23.268;2023-02-18T00:45:47;29.57;;;16.33;;
11877;SDS011;5998;42.676;23.268;2023-02-18T00:48:14;27.90;;;15.83;;
11877;SDS011;5998;42.676;23.268;2023-02-18T00:50:41;25.90;;;15.80;;
11877;SDS011;5998;42.676;23.268;2023-02-18T00:53:07;22.73;;;14.37;;
11877;SDS011;5998;42.676;23.268;2023-02-18T00:55:37;25.87;;;15.13;;
11877;SDS011;5998;42.676;23.268;2023-02-18T00:58:06;21.87;;;14.03;;
11877;SDS011;5998;42.676;23.268;2023-02-18T01:00:32;23.37;;;13.80;;
11877;SDS011;5998;42.676;23.268;2023-02-18T01:02:59;24.13;;;14.83;;
11877;SDS011;5998;42.676;23.268;2023-02-18T01:05:26;24.07;;;13.67;;
11877;SDS011;5998;42.676;23.268;2023-02-18T01:07:53;26.03;;;15.50;;
11877;SDS011;5998;42.676;23.268;2023-02-18T01:10:20;26.73;;;15.17;;
11877;SDS011;5998;42.676;23.268;2023-02-18T01:12:47;24.60;;;15.20;;
11877;SDS011;5998;42.676;23.268;2023-02-18T01:15:15;26.33;;;14.93;;
11877;SDS011;5998;42.676;23.268;2023-02-18T01:17:42;27.73;;;15.20;;
11877;SDS011;5998;42.676;23.268;2023-02-18T01:20:10;33.57;;;17.47;;
11877;SDS011;5998;42.676;23.268;2023-02-18T01:22:38;27.23;;;16.47;;
11877;SDS011;5998;42.676;23.268;2023-02-18T01:25:05;26.70;;;14.07;;
11877;SDS011;5998;42.676;23.268;2023-02-18T01:27:32;23.77;;;14.97;;
11877;SDS011;5998;42.676;23.268;2023-02-18T01:29:59;18.93;;;14.03;;
11877;SDS011;5998;42.676;23.268;2023-02-18T01:32:27;22.77;;;12.77;;
11877;SDS011;5998;42.676;23.268;2023-02-18T01:34:53;23.93;;;13.87;;
11877;SDS011;5998;42.676;23.268;2023-02-18T01:37:20;19.43;;;12.30;;
11877;SDS011;5998;42.676;23.268;2023-02-18T01:39:47;17.63;;;11.97;;
11877;SDS011;5998;42.676;23.268;2023-02-18T01:42:17;19.57;;;12.23;;
11877;SDS011;5998;42.676;23.268;2023-02-18T01:44:45;23.77;;;13.30;;
11877;SDS011;5998;42.676;23.268;2023-02-18T01:47:12;22.03;;;12.67;;
11877;SDS011;5998;42.676;23.268;2023-02-18T01:49:41;22.23;;;13.20;;
11877;SDS011;5998;42.676;23.268;2023-02-18T01:52:11;21.43;;;14.17;;
11877;SDS011;5998;42.676;23.268;2023-02-18T01:54:42;26.20;;;14.50;;
11877;SDS011;5998;42.676;23.268;2023-02-18T01:57:11;26.10;;;13.77;;
11877;SDS011;5998;42.676;23.268;2023-02-18T01:59:40;25.67;;;13.33;;
11877;SDS011;5998;42.676;23.268;2023-02-18T02:02:10;27.40;;;13.90;;
11877;SDS011;5998;42.676;23.268;2023-02-18T02:04:38;23.27;;;14.03;;
11877;SDS011;5998;42.676;23.268;2023-02-18T02:07:07;26.60;;;14.27;;
11877;SDS011;5998;42.676;23.268;2023-02-18T02:09:35;24.40;;;14.63;;
11877;SDS011;5998;42.676;23.268;2023-02-18T02:12:20;23.47;;;13.77;;
11877;SDS011;5998;42.676;23.268;2023-02-18T02:17:52;22.40;;;13.70;;
11877;SDS011;5998;42.676;23.268;2023-02-18T02:20:40;21.30;;;12.57;;
11877;SDS011;5998;42.676;23.268;2023-02-18T02:23:54;23.07;;;13.27;;
11877;SDS011;5998;42.676;23.268;2023-02-18T02:26:57;21.00;;;12.13;;
11877;SDS011;5998;42.676;23.268;2023-02-18T02:29:50;19.73;;;12.83;;
11877;SDS011;5998;42.676;23.268;2023-02-18T02:35:47;23.30;;;13.23;;
11877;SDS011;5998;42.676;23.268;2023-02-18T02:38:19;20.07;;;12.77;;
11877;SDS011;5998;42.676;23.268;2023-02-18T02:40:51;21.73;;;13.73;;
11877;SDS011;5998;42.676;23.268;2023-02-18T02:43:26;24.07;;;13.07;;
11877;SDS011;5998;42.676;23.268;2023-02-18T02:46:01;26.80;;;13.80;;
11877;SDS011;5998;42.676;23.268;2023-02-18T02:48:38;20.97;;;14.30;;
11877;SDS011;5998;42.676;23.268;2023-02-18T02:51:14;21.47;;;13.20;;
11877;SDS011;5998;42.676;23.268;2023-02-18T02:53:44;20.90;;;12.63;;
11877;SDS011;5998;42.676;23.268;2023-02-18T02:56:12;18.30;;;12.70;;
11877;SDS011;5998;42.676;23.268;2023-02-18T02:58:40;20.23;;;12.77;;
11877;SDS011;5998;42.676;23.268;2023-02-18T03:01:14;27.77;;;13.60;;
11877;SDS011;5998;42.676;23.268;2023-02-18T03:03:51;22.07;;;13.50;;
11877;SDS011;5998;42.676;23.268;2023-02-18T03:06:37;21.97;;;13.57;;
11877;SDS011;5998;42.676;23.268;2023-02-18T03:09:14;21.80;;;13.37;;
11877;SDS011;5998;42.676;23.268;2023-02-18T03:11:46;21.60;;;13.73;;
11877;SDS011;5998;42.676;23.268;2023-02-18T03:14:21;20.37;;;13.13;;
11877;SDS011;5998;42.676;23.268;2023-02-18T03:16:56;24.83;;;14.70;;
11877;SDS011;5998;42.676;23.268;2023-02-18T03:19:27;22.80;;;14.60;;
11877;SDS011;5998;42.676;23.268;2023-02-18T03:21:59;20.67;;;13.27;;
11877;SDS011;5998;42.676;23.268;2023-02-18T03:24:29;20.80;;;13.10;;
11877;SDS011;5998;42.676;23.268;2023-02-18T03:27:00;22.43;;;13.37;;
11877;SDS011;5998;42.676;23.268;2023-02-18T03:29:33;22.30;;;13.17;;
11877;SDS011;5998;42.676;23.268;2023-02-18T03:32:02;22.33;;;12.27;;
11877;SDS011;5998;42.676;23.268;2023-02-18T03:34:34;19.73;;;13.03;;
11877;SDS011;5998;42.676;23.268;2023-02-18T03:37:05;21.13;;;12.87;;
11877;SDS011;5998;42.676;23.268;2023-02-18T03:39:35;26.63;;;16.17;;
11877;SDS011;5998;42.676;23.268;2023-02-18T03:42:04;29.57;;;14.70;;
11877;SDS011;5998;42.676;23.268;2023-02-18T03:44:31;20.97;;;13.60;;
11877;SDS011;5998;42.676;23.268;2023-02-18T03:46:58;23.87;;;14.40;;
11877;SDS011;5998;42.676;23.268;2023-02-18T03:49:25;22.10;;;14.60;;
11877;SDS011;5998;42.676;23.268;2023-02-18T03:51:51;26.20;;;16.00;;
11877;SDS011;5998;42.676;23.268;2023-02-18T03:54:20;25.23;;;15.63;;
11877;SDS011;5998;42.676;23.268;2023-02-18T03:56:47;24.67;;;14.03;;
11877;SDS011;5998;42.676;23.268;2023-02-18T03:59:13;27.17;;;14.93;;
11877;SDS011;5998;42.676;23.268;2023-02-18T04:01:40;22.03;;;13.57;;
11877;SDS011;5998;42.676;23.268;2023-02-18T04:04:07;23.00;;;14.57;;
11877;SDS011;5998;42.676;23.268;2023-02-18T04:06:33;27.20;;;14.93;;
11877;SDS011;5998;42.676;23.268;2023-02-18T04:09:00;23.17;;;13.90;;
11877;SDS011;5998;42.676;23.268;2023-02-18T04:11:34;23.47;;;14.20;;
11877;SDS011;5998;42.676;23.268;2023-02-18T04:14:01;21.97;;;13.83;;
11877;SDS011;5998;42.676;23.268;2023-02-18T04:16:27;21.67;;;14.70;;
11877;SDS011;5998;42.676;23.268;2023-02-18T04:18:54;23.73;;;14.90;;
11877;SDS011;5998;42.676;23.268;2023-02-18T04:21:21;23.83;;;15.07;;
11877;SDS011;5998;42.676;23.268;2023-02-18T04:23:48;23.67;;;15.27;;
11877;SDS011;5998;42.676;23.268;2023-02-18T04:26:14;21.67;;;14.87;;
11877;SDS011;5998;42.676;23.268;2023-02-18T04:28:42;25.90;;;15.57;;
11877;SDS011;5998;42.676;23.268;2023-02-18T04:31:09;25.60;;;15.30;;
11877;SDS011;5998;42.676;23.268;2023-02-18T04:33:36;25.47;;;15.33;;
11877;SDS011;5998;42.676;23.268;2023-02-18T04:36:03;28.57;;;16.00;;
11877;SDS011;5998;42.676;23.268;2023-02-18T04:38:30;27.87;;;16.07;;
11877;SDS011;5998;42.676;23.268;2023-02-18T04:40:56;23.53;;;15.83;;
11877;SDS011;5998;42.676;23.268;2023-02-18T04:43:23;27.30;;;15.60;;
11877;SDS011;5998;42.676;23.268;2023-02-18T04:45:51;26.17;;;16.23;;
11877;SDS011;5998;42.676;23.268;2023-02-18T04:48:18;23.73;;;16.00;;
11877;SDS011;5998;42.676;23.268;2023-02-18T04:50:44;26.03;;;15.70;;
11877;SDS011;5998;42.676;23.268;2023-02-18T04:53:11;23.97;;;14.80;;
11877;SDS011;5998;42.676;23.268;2023-02-18T04:55:38;28.30;;;16.03;;
11877;SDS011;5998;42.676;23.268;2023-02-18T04:58:05;27.43;;;16.23;;
11877;SDS011;5998;42.676;23.268;2023-02-18T05:00:34;52.13;;;17.60;;
11877;SDS011;5998;42.676;23.268;2023-02-18T05:03:02;25.27;;;15.97;;
11877;SDS011;5998;42.676;23.268;2023-02-18T05:05:28;26.57;;;15.23;;
11877;SDS011;5998;42.676;23.268;2023-02-18T05:07:55;24.03;;;14.30;;
11877;SDS011;5998;42.676;23.268;2023-02-18T05:10:22;25.57;;;15.10;;
11877;SDS011;5998;42.676;23.268;2023-02-18T05:12:49;24.73;;;15.00;;
11877;SDS011;5998;42.676;23.268;2023-02-18T05:15:15;31.90;;;20.03;;
11877;SDS011;5998;42.676;23.268;2023-02-18T05:17:42;59.73;;;25.83;;
11877;SDS011;5998;42.676;23.268;2023-02-18T05:20:11;27.53;;;16.67;;
11877;SDS011;5998;42.676;23.268;2023-02-18T05:22:38;23.67;;;15.50;;
11877;SDS011;5998;42.676;23.268;2023-02-18T05:25:05;22.40;;;13.93;;
11877;SDS011;5998;42.676;23.268;2023-02-18T05:27:32;22.83;;;14.67;;
11877;SDS011;5998;42.676;23.268;2023-02-18T05:29:58;23.17;;;14.60;;
11877;SDS011;5998;42.676;23.268;2023-02-18T05:32:25;21.70;;;14.43;;
11877;SDS011;5998;42.676;23.268;2023-02-18T05:34:52;24.27;;;14.53;;
11877;SDS011;5998;42.676;23.268;2023-02-18T05:37:20;25.53;;;13.67;;
11877;SDS011;5998;42.676;23.268;2023-02-18T05:39:47;21.33;;;13.83;;
11877;SDS011;5998;42.676;23.268;2023-02-18T05:42:13;21.67;;;14.20;;
11877;SDS011;5998;42.676;23.268;2023-02-18T05:44:40;28.10;;;16.33;;
11877;SDS011;5998;42.676;23.268;2023-02-18T05:47:07;29.50;;;15.03;;
11877;SDS011;5998;42.676;23.268;2023-02-18T05:49:36;28.40;;;16.73;;
11877;SDS011;5998;42.676;23.268;2023-02-18T05:52:03;25.10;;;15.27;;
11877;SDS011;5998;42.676;23.268;2023-02-18T05:54:32;23.73;;;14.23;;
11877;SDS011;5998;42.676;23.268;2023-02-18T05:56:59;25.40;;;14.80;;
11877;SDS011;5998;42.676;23.268;2023-02-18T05:59:26;21.40;;;14.10;;
11877;SDS011;5998;42.676;23.268;2023-02-18T06:01:53;29.33;;;17.20;;
11877;SDS011;5998;42.676;23.268;2023-02-18T06:04:20;26.90;;;17.50;;
11877;SDS011;5998;42.676;23.268;2023-02-18T06:06:47;25.40;;;17.10;;
11877;SDS011;5998;42.676;23.268;2023-02-18T06:09:14;25.23;;;15.83;;
11877;SDS011;5998;42.676;23.268;2023-02-18T06:11:42;25.10;;;17.53;;
11877;SDS011;5998;42.676;23.268;2023-02-18T06:14:08;23.37;;;15.63;;
11877;SDS011;5998;42.676;23.268;2023-02-18T06:16:35;24.27;;;16.53;;
11877;SDS011;5998;42.676;23.268;2023-02-18T06:19:02;26.50;;;18.30;;
11877;SDS011;5998;42.676;23.268;2023-02-18T06:21:29;30.33;;;18.73;;
11877;SDS011;5998;42.676;23.268;2023-02-18T06:23:56;34.30;;;18.27;;
11877;SDS011;5998;42.676;23.268;2023-02-18T06:26:23;29.13;;;18.03;;
11877;SDS011;5998;42.676;23.268;2023-02-18T06:28:51;28.33;;;17.73;;
11877;SDS011;5998;42.676;23.268;2023-02-18T06:31:17;27.00;;;17.80;;
11877;SDS011;5998;42.676;23.268;2023-02-18T06:33:44;28.47;;;17.57;;
11877;SDS011;5998;42.676;23.268;2023-02-18T06:36:11;26.90;;;16.40;;
11877;SDS011;5998;42.676;23.268;2023-02-18T06:38:39;28.17;;;15.67;;
11877;SDS011;5998;42.676;23.268;2023-02-18T06:41:06;27.27;;;16.43;;
11877;SDS011;5998;42.676;23.268;2023-02-18T06:43:33;21.63;;;15.03;;
11877;SDS011;5998;42.676;23.268;2023-02-18T06:46:02;39.97;;;15.57;;
11877;SDS011;5998;42.676;23.268;2023-02-18T06:48:30;32.30;;;14.77;;
11877;SDS011;5998;42.676;23.268;2023-02-18T06:50:57;26.73;;;13.90;;
11877;SDS011;5998;42.676;23.268;2023-02-18T06:53:24;25.37;;;13.50;;
11877;SDS011;5998;42.676;23.268;2023-02-18T06:55:51;20.70;;;13.60;;
11877;SDS011;5998;42.676;23.268;2023-02-18T06:58:17;27.27;;;14.20;;
11877;SDS011;5998;42.676;23.268;2023-02-18T07:00:44;29.07;;;13.33;;
11877;SDS011;5998;42.676;23.268;2023-02-18T07:03:13;22.83;;;13.73;;
11877;SDS011;5998;42.676;23.268;2023-02-18T07:05:40;25.93;;;16.90;;
11877;SDS011;5998;42.676;23.268;2023-02-18T07:08:07;48.23;;;24.00;;
11877;SDS011;5998;42.676;23.268;2023-02-18T07:10:34;48.00;;;19.73;;
11877;SDS011;5998;42.676;23.268;2023-02-18T07:13:01;29.80;;;14.83;;
11877;SDS011;5998;42.676;23.268;2023-02-18T07:15:28;33.70;;;17.63;;
11877;SDS011;5998;42.676;23.268;2023-02-18T07:17:54;46.07;;;19.50;;
11877;SDS011;5998;42.676;23.268;2023-02-18T07:20:22;30.90;;;17.93;;
11877;SDS011;5998;42.676;23.268;2023-02-18T07:22:50;34.73;;;17.67;;
11877;SDS011;5998;42.676;23.268;2023-02-18T07:25:17;29.67;;;16.03;;
11877;SDS011;5998;42.676;23.268;2023-02-18T07:27:44;33.00;;;18.27;;
11877;SDS011;5998;42.676;23.268;2023-02-18T07:30:11;28.70;;;17.33;;
11877;SDS011;5998;42.676;23.268;2023-02-18T07:32:38;21.50;;;12.70;;
11877;SDS011;5998;42.676;23.268;2023-02-18T07:35:05;26.17;;;14.47;;
11877;SDS011;5998;42.676;23.268;2023-02-18T07:37:33;29.20;;;15.07;;
11877;SDS011;5998;42.676;23.268;2023-02-18T07:40:00;28.63;;;15.10;;
11877;SDS011;5998;42.676;23.268;2023-02-18T07:42:27;21.77;;;14.37;;
11877;SDS011;5998;42.676;23.268;2023-02-18T07:44:53;26.40;;;14.83;;
11877;SDS011;5998;42.676;23.268;2023-02-18T07:47:20;21.37;;;13.37;;
11877;SDS011;5998;42.676;23.268;2023-02-18T07:49:47;27.43;;;14.40;;
11877;SDS011;5998;42.676;23.268;2023-02-18T07:52:14;20.67;;;13.23;;
11877;SDS011;5998;42.676;23.268;2023-02-18T07:54:42;20.90;;;12.27;;
11877;SDS011;5998;42.676;23.268;2023-02-18T07:57:09;22.80;;;12.87;;
11877;SDS011;5998;42.676;23.268;2023-02-18T07:59:36;24.40;;;13.50;;
11877;SDS011;5998;42.676;23.268;2023-02-18T08:02:03;21.60;;;11.27;;
11877;SDS011;5998;42.676;23.268;2023-02-18T08:04:31;22.33;;;10.97;;
11877;SDS011;5998;42.676;23.268;2023-02-18T08:06:58;17.37;;;11.03;;
11877;SDS011;5998;42.676;23.268;2023-02-18T08:09:25;18.93;;;11.43;;
11877;SDS011;5998;42.676;23.268;2023-02-18T08:11:53;19.67;;;10.90;;
11877;SDS011;5998;42.676;23.268;2023-02-18T08:14:19;17.07;;;11.70;;
11877;SDS011;5998;42.676;23.268;2023-02-18T08:16:46;23.73;;;12.10;;
11877;SDS011;5998;42.676;23.268;2023-02-18T08:19:13;18.20;;;11.13;;
11877;SDS011;5998;42.676;23.268;2023-02-18T08:21:39;20.97;;;11.77;;
11877;SDS011;5998;42.676;23.268;2023-02-18T08:24:06;23.17;;;12.33;;
11877;SDS011;5998;42.676;23.268;2023-02-18T08:26:33;26.13;;;12.23;;
11877;SDS011;5998;42.676;23.268;2023-02-18T08:29:01;22.13;;;12.83;;
11877;SDS011;5998;42.676;23.268;2023-02-18T08:31:28;23.90;;;12.43;;
11877;SDS011;5998;42.676;23.268;2023-02-18T08:33:56;20.60;;;11.50;;
11877;SDS011;5998;42.676;23.268;2023-02-18T08:36:24;17.67;;;11.80;;
11877;SDS011;5998;42.676;23.268;2023-02-18T08:38:52;18.23;;;12.20;;
11877;SDS011;5998;42.676;23.268;2023-02-18T08:41:19;23.07;;;12.13;;
11877;SDS011;5998;42.676;23.268;2023-02-18T08:43:46;22.70;;;12.87;;
11877;SDS011;5998;42.676;23.268;2023-02-18T08:46:15;27.13;;;14.07;;
11877;SDS011;5998;42.676;23.268;2023-02-18T08:48:42;24.30;;;13.37;;
11877;SDS011;5998;42.676;23.268;2023-02-18T08:51:09;22.10;;;13.30;;
11877;SDS011;5998;42.676;23.268;2023-02-18T08:53:38;25.03;;;14.37;;
11877;SDS011;5998;42.676;23.268;2023-02-18T08:56:05;28.10;;;15.40;;
11877;SDS011;5998;42.676;23.268;2023-02-18T08:58:32;24.57;;;14.83;;
11877;SDS011;5998;42.676;23.268;2023-02-18T09:01:01;24.63;;;13.30;;
11877;SDS011;5998;42.676;23.268;2023-02-18T09:03:31;21.97;;;13.17;;
11877;SDS011;5998;42.676;23.268;2023-02-18T09:05:58;22.77;;;14.57;;
11877;SDS011;5998;42.676;23.268;2023-02-18T09:08:25;26.63;;;13.20;;
11877;SDS011;5998;42.676;23.268;2023-02-18T09:10:53;20.57;;;12.83;;
11877;SDS011;5998;42.676;23.268;2023-02-18T09:13:21;24.93;;;13.77;;
11877;SDS011;5998;42.676;23.268;2023-02-18T09:15:54;26.50;;;12.77;;
11877;SDS011;5998;42.676;23.268;2023-02-18T09:18:22;22.23;;;13.30;;
11877;SDS011;5998;42.676;23.268;2023-02-18T09:20:50;27.83;;;13.10;;
11877;SDS011;5998;42.676;23.268;2023-02-18T09:23:20;20.30;;;13.10;;
11877;SDS011;5998;42.676;23.268;2023-02-18T09:25:47;23.87;;;14.30;;
11877;SDS011;5998;42.676;23.268;2023-02-18T09:28:14;22.50;;;13.93;;
11877;SDS011;5998;42.676;23.268;2023-02-18T09:30:40;24.03;;;12.83;;
11877;SDS011;5998;42.676;23.268;2023-02-18T09:33:07;25.27;;;12.83;;
11877;SDS011;5998;42.676;23.268;2023-02-18T09:35:37;20.93;;;12.30;;
11877;SDS011;5998;42.676;23.268;2023-02-18T09:38:05;20.70;;;13.03;;
11877;SDS011;5998;42.676;23.268;2023-02-18T09:40:33;24.80;;;13.23;;
11877;SDS011;5998;42.676;23.268;2023-02-18T09:43:02;18.50;;;12.03;;
11877;SDS011;5998;42.676;23.268;2023-02-18T09:45:30;19.40;;;11.40;;
11877;SDS011;5998;42.676;23.268;2023-02-18T09:47:57;20.73;;;11.70;;
11877;SDS011;5998;42.676;23.268;2023-02-18T09:50:27;19.50;;;10.80;;
11877;SDS011;5998;42.676;23.268;2023-02-18T09:52:57;15.40;;;9.37;;
11877;SDS011;5998;42.676;23.268;2023-02-18T09:55:27;19.20;;;12.17;;
11877;SDS011;5998;42.676;23.268;2023-02-18T09:57:56;15.40;;;9.80;;
11877;SDS011;5998;42.676;23.268;2023-02-18T10:00:28;18.37;;;11.17;;
11877;SDS011;5998;42.676;23.268;2023-02-18T10:02:59;25.90;;;11.63;;
11877;SDS011;5998;42.676;23.268;2023-02-18T10:05:29;28.60;;;11.60;;
11877;SDS011;5998;42.676;23.268;2023-02-18T10:07:59;18.17;;;10.93;;
11877;SDS011;5998;42.676;23.268;2023-02-18T10:10:32;24.33;;;10.00;;
11877;SDS011;5998;42.676;23.268;2023-02-18T10:13:03;15.67;;;8.83;;
11877;SDS011;5998;42.676;23.268;2023-02-18T10:15:32;25.40;;;12.47;;
11877;SDS011;5998;42.676;23.268;2023-02-18T10:18:01;20.80;;;11.37;;
11877;SDS011;5998;42.676;23.268;2023-02-18T10:20:28;17.17;;;10.90;;
11877;SDS011;5998;42.676;23.268;2023-02-18T10:22:59;16.27;;;10.40;;
11877;SDS011;5998;42.676;23.268;2023-02-18T10:25:29;14.17;;;9.57;;
11877;SDS011;5998;42.676;23.268;2023-02-18T10:28:02;15.47;;;9.50;;
11877;SDS011;5998;42.676;23.268;2023-02-18T10:30:29;17.90;;;10.77;;
11877;SDS011;5998;42.676;23.268;2023-02-18T10:33:07;14.03;;;9.07;;
11877;SDS011;5998;42.676;23.268;2023-02-18T10:35:48;14.80;;;9.30;;
11877;SDS011;5998;42.676;23.268;2023-02-18T10:38:19;21.83;;;11.23;;
11877;SDS011;5998;42.676;23.268;2023-02-18T10:41:02;14.47;;;9.57;;
11877;SDS011;5998;42.676;23.268;2023-02-18T10:43:40;10.20;;;7.40;;
11877;SDS011;5998;42.676;23.268;2023-02-18T10:46:15;15.53;;;10.23;;
11877;SDS011;5998;42.676;23.268;2023-02-18T10:48:49;16.57;;;9.23;;
11877;SDS011;5998;42.676;23.268;2023-02-18T10:51:31;15.30;;;8.93;;
11877;SDS011;5998;42.676;23.268;2023-02-18T10:53:59;7.73;;;4.97;;
11877;SDS011;5998;42.676;23.268;2023-02-18T10:56:34;9.83;;;5.93;;
11877;SDS011;5998;42.676;23.268;2023-02-18T10:59:05;12.07;;;6.03;;
11877;SDS011;5998;42.676;23.268;2023-02-18T11:01:36;8.77;;;6.07;;
11877;SDS011;5998;42.676;23.268;2023-02-18T11:04:04;8.63;;;6.80;;
11877;SDS011;5998;42.676;23.268;2023-02-18T11:06:37;12.27;;;7.00;;
11877;SDS011;5998;42.676;23.268;2023-02-18T11:09:06;5.77;;;4.10;;
11877;SDS011;5998;42.676;23.268;2023-02-18T11:11:37;6.23;;;3.40;;
11877;SDS011;5998;42.676;23.268;2023-02-18T11:14:06;8.30;;;3.07;;
11877;SDS011;5998;42.676;23.268;2023-02-18T11:16:37;5.97;;;2.90;;
11877;SDS011;5998;42.676;23.268;2023-02-18T11:19:11;3.17;;;2.27;;
11877;SDS011;5998;42.676;23.268;2023-02-18T11:22:05;4.00;;;3.00;;
11877;SDS011;5998;42.676;23.268;2023-02-18T11:24:37;5.03;;;2.90;;
11877;SDS011;5998;42.676;23.268;2023-02-18T11:27:08;3.57;;;2.70;;
11877;SDS011;5998;42.676;23.268;2023-02-18T11:29:36;3.90;;;2.40;;
11877;SDS011;5998;42.676;23.268;2023-02-18T11:32:04;4.17;;;2.60;;
11877;SDS011;5998;42.676;23.268;2023-02-18T11:34:37;4.67;;;3.07;;
11877;SDS011;5998;42.676;23.268;2023-02-18T11:37:11;6.13;;;3.20;;
11877;SDS011;5998;42.676;23.268;2023-02-18T11:39:43;3.73;;;2.60;;
11877;SDS011;5998;42.676;23.268;2023-02-18T11:42:13;4.37;;;3.30;;
11877;SDS011;5998;42.676;23.268;2023-02-18T11:44:47;7.43;;;3.60;;
11877;SDS011;5998;42.676;23.268;2023-02-18T11:47:21;4.47;;;3.10;;
11877;SDS011;5998;42.676;23.268;2023-02-18T11:50:00;8.67;;;3.50;;
11877;SDS011;5998;42.676;23.268;2023-02-18T11:52:37;5.10;;;3.10;;
11877;SDS011;5998;42.676;23.268;2023-02-18T11:55:06;4.60;;;2.83;;
11877;SDS011;5998;42.676;23.268;2023-02-18T11:57:41;4.57;;;2.83;;
11877;SDS011;5998;42.676;23.268;2023-02-18T12:00:14;6.17;;;2.80;;
11877;SDS011;5998;42.676;23.268;2023-02-18T12:02:45;5.23;;;2.57;;
11877;SDS011;5998;42.676;23.268;2023-02-18T12:05:13;3.53;;;2.80;;
11877;SDS011;5998;42.676;23.268;2023-02-18T12:07:44;6.70;;;2.90;;
11877;SDS011;5998;42.676;23.268;2023-02-18T12:10:14;5.20;;;3.00;;
11877;SDS011;5998;42.676;23.268;2023-02-18T12:12:52;3.70;;;2.70;;
11877;SDS011;5998;42.676;23.268;2023-02-18T12:15:28;3.17;;;2.87;;
11877;SDS011;5998;42.676;23.268;2023-02-18T12:18:08;4.30;;;3.03;;
11877;SDS011;5998;42.676;23.268;2023-02-18T12:21:08;4.77;;;3.03;;
11877;SDS011;5998;42.676;23.268;2023-02-18T12:23:58;7.70;;;3.90;;
11877;SDS011;5998;42.676;23.268;2023-02-18T12:26:35;9.43;;;4.10;;
11877;SDS011;5998;42.676;23.268;2023-02-18T12:29:16;5.10;;;3.30;;
11877;SDS011;5998;42.676;23.268;2023-02-18T12:31:57;6.30;;;3.30;;
11877;SDS011;5998;42.676;23.268;2023-02-18T12:34:40;6.93;;;2.53;;
11877;SDS011;5998;42.676;23.268;2023-02-18T12:40:20;6.93;;;3.63;;
11877;SDS011;5998;42.676;23.268;2023-02-18T12:43:08;5.53;;;3.23;;
11877;SDS011;5998;42.676;23.268;2023-02-18T12:45:54;6.83;;;3.20;;
11877;SDS011;5998;42.676;23.268;2023-02-18T12:48:40;4.47;;;2.87;;
11877;SDS011;5998;42.676;23.268;2023-02-18T12:51:21;5.73;;;3.30;;
11877;SDS011;5998;42.676;23.268;2023-02-18T12:54:01;3.80;;;3.17;;
11877;SDS011;5998;42.676;23.268;2023-02-18T12:56:52;3.83;;;3.30;;
11877;SDS011;5998;42.676;23.268;2023-02-18T12:59:51;3.60;;;2.73;;
11877;SDS011;5998;42.676;23.268;2023-02-18T13:02:50;7.40;;;3.40;;
11877;SDS011;5998;42.676;23.268;2023-02-18T13:05:35;5.03;;;2.83;;
11877;SDS011;5998;42.676;23.268;2023-02-18T13:08:21;5.63;;;2.97;;
11877;SDS011;5998;42.676;23.268;2023-02-18T13:11:04;4.43;;;3.10;;
11877;SDS011;5998;42.676;23.268;2023-02-18T13:13:40;3.60;;;3.10;;
11877;SDS011;5998;42.676;23.268;2023-02-18T13:16:14;4.73;;;3.10;;
11877;SDS011;5998;42.676;23.268;2023-02-18T13:18:49;4.53;;;3.27;;
11877;SDS011;5998;42.676;23.268;2023-02-18T13:21:24;8.63;;;3.37;;
11877;SDS011;5998;42.676;23.268;2023-02-18T13:23:54;4.17;;;3.33;;
11877;SDS011;5998;42.676;23.268;2023-02-18T13:26:23;3.60;;;3.27;;
11877;SDS011;5998;42.676;23.268;2023-02-18T13:28:53;7.70;;;3.50;;
11877;SDS011;5998;42.676;23.268;2023-02-18T13:31:34;7.90;;;3.50;;
11877;SDS011;5998;42.676;23.268;2023-02-18T13:34:11;7.40;;;3.40;;
11877;SDS011;5998;42.676;23.268;2023-02-18T13:36:51;4.83;;;3.10;;
11877;SDS011;5998;42.676;23.268;2023-02-18T13:39:27;7.33;;;3.50;;
11877;SDS011;5998;42.676;23.268;2023-02-18T13:42:09;6.60;;;3.30;;
11877;SDS011;5998;42.676;23.268;2023-02-18T13:44:38;7.27;;;3.47;;
11877;SDS011;5998;42.676;23.268;2023-02-18T13:47:11;5.77;;;3.60;;
11877;SDS011;5998;42.676;23.268;2023-02-18T13:50:14;7.17;;;3.47;;
11877;SDS011;5998;42.676;23.268;2023-02-18T13:52:49;5.23;;;3.40;;
11877;SDS011;5998;42.676;23.268;2023-02-18T13:55:22;7.93;;;3.47;;
11877;SDS011;5998;42.676;23.268;2023-02-18T13:57:59;6.90;;;3.90;;
11877;SDS011;5998;42.676;23.268;2023-02-18T14:00:33;6.33;;;3.87;;
11877;SDS011;5998;42.676;23.268;2023-02-18T14:05:47;9.00;;;4.27;;
11877;SDS011;5998;42.676;23.268;2023-02-18T14:08:28;7.23;;;4.87;;
11877;SDS011;5998;42.676;23.268;2023-02-18T14:14:26;7.93;;;4.63;;
11877;SDS011;5998;42.676;23.268;2023-02-18T14:23:42;9.33;;;4.40;;
11877;SDS011;5998;42.676;23.268;2023-02-18T14:26:16;6.07;;;4.20;;
11877;SDS011;5998;42.676;23.268;2023-02-18T14:28:48;8.90;;;4.57;;
11877;SDS011;5998;42.676;23.268;2023-02-18T14:31:27;8.40;;;4.23;;
11877;SDS011;5998;42.676;23.268;2023-02-18T14:37:18;4.90;;;4.13;;
11877;SDS011;5998;42.676;23.268;2023-02-18T14:40:01;6.70;;;4.27;;
11877;SDS011;5998;42.676;23.268;2023-02-18T14:42:41;7.43;;;4.80;;
11877;SDS011;5998;42.676;23.268;2023-02-18T14:45:23;6.97;;;4.80;;
11877;SDS011;5998;42.676;23.268;2023-02-18T14:48:07;6.43;;;4.80;;
11877;SDS011;5998;42.676;23.268;2023-02-18T14:50:49;6.60;;;4.10;;
11877;SDS011;5998;42.676;23.268;2023-02-18T14:53:19;7.30;;;4.47;;
11877;SDS011;5998;42.676;23.268;2023-02-18T14:55:50;5.77;;;4.37;;
11877;SDS011;5998;42.676;23.268;2023-02-18T14:58:24;6.77;;;4.47;;
11877;SDS011;5998;42.676;23.268;2023-02-18T15:00:55;6.20;;;3.87;;
11877;SDS011;5998;42.676;23.268;2023-02-18T15:03:22;9.97;;;5.10;;
11877;SDS011;5998;42.676;23.268;2023-02-18T15:05:51;5.93;;;4.57;;
11877;SDS011;5998;42.676;23.268;2023-02-18T15:08:18;7.90;;;4.50;;
11877;SDS011;5998;42.676;23.268;2023-02-18T15:10:48;8.20;;;5.00;;
11877;SDS011;5998;42.676;23.268;2023-02-18T15:13:19;6.67;;;4.50;;
11877;SDS011;5998;42.676;23.268;2023-02-18T15:15:51;9.30;;;4.77;;